sensor_id;sensor_type;location;lat;lon;timestamp;P1;durP1;ratioP1;P2;durP2;ratioP2
60700;SDS011;46541;49.894;10.886;2023-07-13T00:00:10;4.15;;;1.50;;
60700;SDS011;46541;49.894;10.886;2023-07-13T00:02:37;1.42;;;1.15;;
60700;SDS011;46541;49.894;10.886;2023-07-13T00:05:05;6.43;;;1.38;;
60700;SDS011;46541;49.894;10.886;2023-07-13T00:07:33;5.18;;;1.30;;
60700;SDS011;46541;49.894;10.886;2023-07-13T00:10:00;2.50;;;1.33;;
60700;SDS011;46541;49.894;10.886;2023-07-13T00:12:29;1.70;;;1.38;;
60700;SDS011;46541;49.894;10.886;2023-07-13T00:14:58;2.13;;;1.25;;
60700;SDS011;46541;49.894;10.886;2023-07-13T00:17:28;4.88;;;1.67;;
60700;SDS011;46541;49.894;10.886;2023-07-13T00:19:55;2.67;;;1.00;;
60700;SDS011;46541;49.894;10.886;2023-07-13T00:22:23;2.85;;;1.33;;
60700;SDS011;46541;49.894;10.886;2023-07-13T00:24:52;1.92;;;1.13;;
60700;SDS011;46541;49.894;10.886;2023-07-13T00:27:22;2.03;;;1.40;;
60700;SDS011;46541;49.894;10.886;2023-07-13T00:29:52;1.75;;;1.55;;
60700;SDS011;46541;49.894;10.886;2023-07-13T00:32:19;2.25;;;1.30;;
60700;SDS011;46541;49.894;10.886;2023-07-13T00:34:46;3.17;;;1.15;;
60700;SDS011;46541;49.894;10.886;2023-07-13T00:37:13;4.10;;;1.40;;
60700;SDS011;46541;49.894;10.886;2023-07-13T00:39:40;3.17;;;1.20;;
60700;SDS011;46541;49.894;10.886;2023-07-13T00:42:06;1.90;;;1.40;;
60700;SDS011;46541;49.894;10.886;2023-07-13T00:44:33;3.60;;;1.35;;
60700;SDS011;46541;49.894;10.886;2023-07-13T00:47:00;1.65;;;1.27;;
60700;SDS011;46541;49.894;10.886;2023-07-13T00:49:27;2.33;;;1.50;;
60700;SDS011;46541;49.894;10.886;2023-07-13T00:52:02;1.95;;;1.30;;
60700;SDS011;46541;49.894;10.886;2023-07-13T00:54:36;3.00;;;0.93;;
60700;SDS011;46541;49.894;10.886;2023-07-13T00:57:07;2.22;;;1.27;;
60700;SDS011;46541;49.894;10.886;2023-07-13T00:59:36;1.52;;;1.20;;
60700;SDS011;46541;49.894;10.886;2023-07-13T01:02:08;3.72;;;1.30;;
60700;SDS011;46541;49.894;10.886;2023-07-13T01:04:35;2.53;;;1.30;;
60700;SDS011;46541;49.894;10.886;2023-07-13T01:07:01;2.38;;;1.55;;
60700;SDS011;46541;49.894;10.886;2023-07-13T01:09:28;4.75;;;1.30;;
60700;SDS011;46541;49.894;10.886;2023-07-13T01:11:55;4.72;;;1.17;;
60700;SDS011;46541;49.894;10.886;2023-07-13T01:14:22;1.63;;;0.90;;
60700;SDS011;46541;49.894;10.886;2023-07-13T01:16:49;3.28;;;1.20;;
60700;SDS011;46541;49.894;10.886;2023-07-13T01:21:49;3.92;;;1.38;;
60700;SDS011;46541;49.894;10.886;2023-07-13T01:24:18;2.67;;;1.10;;
60700;SDS011;46541;49.894;10.886;2023-07-13T01:26:44;5.78;;;1.48;;
60700;SDS011;46541;49.894;10.886;2023-07-13T01:29:11;1.42;;;1.15;;
60700;SDS011;46541;49.894;10.886;2023-07-13T01:31:38;2.50;;;1.50;;
60700;SDS011;46541;49.894;10.886;2023-07-13T01:34:05;2.30;;;1.30;;
60700;SDS011;46541;49.894;10.886;2023-07-13T01:36:32;1.85;;;1.13;;
60700;SDS011;46541;49.894;10.886;2023-07-13T01:38:59;2.42;;;1.10;;
60700;SDS011;46541;49.894;10.886;2023-07-13T01:41:26;3.60;;;1.20;;
60700;SDS011;46541;49.894;10.886;2023-07-13T01:43:53;2.47;;;1.45;;
60700;SDS011;46541;49.894;10.886;2023-07-13T01:46:19;2.97;;;1.40;;
60700;SDS011;46541;49.894;10.886;2023-07-13T01:48:49;3.97;;;1.45;;
60700;SDS011;46541;49.894;10.886;2023-07-13T01:51:18;2.03;;;1.50;;
60700;SDS011;46541;49.894;10.886;2023-07-13T01:53:45;3.67;;;1.13;;
60700;SDS011;46541;49.894;10.886;2023-07-13T01:56:12;1.85;;;1.10;;
60700;SDS011;46541;49.894;10.886;2023-07-13T01:58:39;1.70;;;1.27;;
60700;SDS011;46541;49.894;10.886;2023-07-13T02:01:06;5.10;;;1.50;;
60700;SDS011;46541;49.894;10.886;2023-07-13T02:03:33;2.95;;;1.45;;
60700;SDS011;46541;49.894;10.886;2023-07-13T02:05:59;1.40;;;1.20;;
60700;SDS011;46541;49.894;10.886;2023-07-13T02:08:26;1.88;;;1.38;;
60700;SDS011;46541;49.894;10.886;2023-07-13T02:10:53;1.92;;;1.33;;
60700;SDS011;46541;49.894;10.886;2023-07-13T02:13:20;1.80;;;1.35;;
60700;SDS011;46541;49.894;10.886;2023-07-13T02:15:49;2.28;;;1.30;;
60700;SDS011;46541;49.894;10.886;2023-07-13T02:18:17;1.58;;;1.30;;
60700;SDS011;46541;49.894;10.886;2023-07-13T02:20:44;2.88;;;1.63;;
60700;SDS011;46541;49.894;10.886;2023-07-13T02:23:11;2.00;;;0.95;;
60700;SDS011;46541;49.894;10.886;2023-07-13T02:25:38;3.28;;;1.88;;
60700;SDS011;46541;49.894;10.886;2023-07-13T02:28:05;3.08;;;1.52;;
60700;SDS011;46541;49.894;10.886;2023-07-13T02:30:32;4.45;;;1.60;;
60700;SDS011;46541;49.894;10.886;2023-07-13T02:33:00;3.58;;;1.20;;
60700;SDS011;46541;49.894;10.886;2023-07-13T02:35:27;2.40;;;1.33;;
60700;SDS011;46541;49.894;10.886;2023-07-13T02:37:54;2.25;;;1.35;;
60700;SDS011;46541;49.894;10.886;2023-07-13T02:40:21;2.65;;;1.10;;
60700;SDS011;46541;49.894;10.886;2023-07-13T02:42:48;4.40;;;1.33;;
60700;SDS011;46541;49.894;10.886;2023-07-13T02:45:15;3.05;;;1.13;;
60700;SDS011;46541;49.894;10.886;2023-07-13T02:47:42;2.60;;;1.38;;
60700;SDS011;46541;49.894;10.886;2023-07-13T02:50:09;2.65;;;1.00;;
60700;SDS011;46541;49.894;10.886;2023-07-13T02:52:36;1.98;;;1.17;;
60700;SDS011;46541;49.894;10.886;2023-07-13T02:55:02;2.35;;;1.02;;
60700;SDS011;46541;49.894;10.886;2023-07-13T02:57:31;3.88;;;1.40;;
60700;SDS011;46541;49.894;10.886;2023-07-13T02:59:59;2.45;;;1.17;;
60700;SDS011;46541;49.894;10.886;2023-07-13T03:02:26;5.57;;;1.40;;
60700;SDS011;46541;49.894;10.886;2023-07-13T03:04:55;2.63;;;1.30;;
60700;SDS011;46541;49.894;10.886;2023-07-13T03:07:22;2.17;;;1.38;;
60700;SDS011;46541;49.894;10.886;2023-07-13T03:09:49;2.38;;;1.33;;
60700;SDS011;46541;49.894;10.886;2023-07-13T03:12:21;2.13;;;1.40;;
60700;SDS011;46541;49.894;10.886;2023-07-13T03:14:48;4.35;;;1.42;;
60700;SDS011;46541;49.894;10.886;2023-07-13T03:17:15;2.95;;;1.25;;
60700;SDS011;46541;49.894;10.886;2023-07-13T03:19:42;5.82;;;1.73;;
60700;SDS011;46541;49.894;10.886;2023-07-13T03:22:10;4.72;;;1.50;;
60700;SDS011;46541;49.894;10.886;2023-07-13T03:24:37;2.42;;;1.60;;
60700;SDS011;46541;49.894;10.886;2023-07-13T03:27:05;2.80;;;1.20;;
60700;SDS011;46541;49.894;10.886;2023-07-13T03:29:32;3.00;;;1.15;;
60700;SDS011;46541;49.894;10.886;2023-07-13T03:31:59;3.20;;;1.20;;
60700;SDS011;46541;49.894;10.886;2023-07-13T03:34:26;1.88;;;1.20;;
60700;SDS011;46541;49.894;10.886;2023-07-13T03:36:56;4.10;;;1.52;;
60700;SDS011;46541;49.894;10.886;2023-07-13T03:39:22;4.20;;;1.48;;
60700;SDS011;46541;49.894;10.886;2023-07-13T03:41:49;1.63;;;1.10;;
60700;SDS011;46541;49.894;10.886;2023-07-13T03:44:16;5.78;;;1.35;;
60700;SDS011;46541;49.894;10.886;2023-07-13T03:46:44;3.67;;;1.10;;
60700;SDS011;46541;49.894;10.886;2023-07-13T03:49:11;5.50;;;1.48;;
60700;SDS011;46541;49.894;10.886;2023-07-13T03:51:38;3.10;;;1.42;;
60700;SDS011;46541;49.894;10.886;2023-07-13T03:54:05;2.97;;;1.20;;
60700;SDS011;46541;49.894;10.886;2023-07-13T03:56:32;4.40;;;1.25;;
60700;SDS011;46541;49.894;10.886;2023-07-13T03:58:59;4.50;;;1.65;;
60700;SDS011;46541;49.894;10.886;2023-07-13T04:01:26;2.88;;;1.60;;
60700;SDS011;46541;49.894;10.886;2023-07-13T04:03:53;6.85;;;1.60;;
60700;SDS011;46541;49.894;10.886;2023-07-13T04:06:21;4.30;;;1.50;;
60700;SDS011;46541;49.894;10.886;2023-07-13T04:08:52;3.42;;;1.50;;
60700;SDS011;46541;49.894;10.886;2023-07-13T04:11:20;4.05;;;1.85;;
60700;SDS011;46541;49.894;10.886;2023-07-13T04:13:48;3.88;;;1.52;;
60700;SDS011;46541;49.894;10.886;2023-07-13T04:16:16;2.45;;;1.35;;
60700;SDS011;46541;49.894;10.886;2023-07-13T04:18:45;3.83;;;1.70;;
60700;SDS011;46541;49.894;10.886;2023-07-13T04:21:12;5.57;;;1.48;;
60700;SDS011;46541;49.894;10.886;2023-07-13T04:23:40;2.97;;;1.30;;
60700;SDS011;46541;49.894;10.886;2023-07-13T04:26:07;3.80;;;1.30;;
60700;SDS011;46541;49.894;10.886;2023-07-13T04:28:34;2.78;;;1.27;;
60700;SDS011;46541;49.894;10.886;2023-07-13T04:31:02;3.17;;;1.35;;
60700;SDS011;46541;49.894;10.886;2023-07-13T04:33:29;1.80;;;1.30;;
60700;SDS011;46541;49.894;10.886;2023-07-13T04:35:56;1.42;;;1.00;;
60700;SDS011;46541;49.894;10.886;2023-07-13T04:38:24;2.40;;;1.10;;
60700;SDS011;46541;49.894;10.886;2023-07-13T04:40:55;2.50;;;1.13;;
60700;SDS011;46541;49.894;10.886;2023-07-13T04:43:23;2.72;;;1.05;;
60700;SDS011;46541;49.894;10.886;2023-07-13T04:45:51;4.38;;;1.13;;
60700;SDS011;46541;49.894;10.886;2023-07-13T04:48:18;3.13;;;0.90;;
60700;SDS011;46541;49.894;10.886;2023-07-13T04:50:46;3.53;;;1.08;;
60700;SDS011;46541;49.894;10.886;2023-07-13T04:53:13;2.33;;;1.00;;
60700;SDS011;46541;49.894;10.886;2023-07-13T04:55:40;3.30;;;1.40;;
60700;SDS011;46541;49.894;10.886;2023-07-13T04:58:07;2.83;;;1.30;;
60700;SDS011;46541;49.894;10.886;2023-07-13T05:00:33;3.92;;;1.25;;
60700;SDS011;46541;49.894;10.886;2023-07-13T05:03:00;5.32;;;1.40;;
60700;SDS011;46541;49.894;10.886;2023-07-13T05:05:29;2.60;;;1.30;;
60700;SDS011;46541;49.894;10.886;2023-07-13T05:07:56;4.18;;;1.27;;
60700;SDS011;46541;49.894;10.886;2023-07-13T05:10:23;5.22;;;0.90;;
60700;SDS011;46541;49.894;10.886;2023-07-13T05:12:50;1.77;;;1.05;;
60700;SDS011;46541;49.894;10.886;2023-07-13T05:15:17;2.65;;;1.40;;
60700;SDS011;46541;49.894;10.886;2023-07-13T05:17:47;3.80;;;1.13;;
60700;SDS011;46541;49.894;10.886;2023-07-13T05:20:15;3.38;;;1.13;;
60700;SDS011;46541;49.894;10.886;2023-07-13T05:22:44;3.38;;;1.08;;
60700;SDS011;46541;49.894;10.886;2023-07-13T05:25:13;2.35;;;1.10;;
60700;SDS011;46541;49.894;10.886;2023-07-13T05:27:40;3.42;;;1.30;;
60700;SDS011;46541;49.894;10.886;2023-07-13T05:30:07;2.83;;;1.00;;
60700;SDS011;46541;49.894;10.886;2023-07-13T05:32:37;2.83;;;1.30;;
60700;SDS011;46541;49.894;10.886;2023-07-13T05:35:04;4.95;;;1.60;;
60700;SDS011;46541;49.894;10.886;2023-07-13T05:37:31;7.75;;;1.52;;
60700;SDS011;46541;49.894;10.886;2023-07-13T05:39:58;3.25;;;1.10;;
60700;SDS011;46541;49.894;10.886;2023-07-13T05:42:25;3.00;;;1.30;;
60700;SDS011;46541;49.894;10.886;2023-07-13T05:44:51;5.72;;;1.10;;
60700;SDS011;46541;49.894;10.886;2023-07-13T05:47:18;6.97;;;1.90;;
60700;SDS011;46541;49.894;10.886;2023-07-13T05:49:45;6.00;;;2.42;;
60700;SDS011;46541;49.894;10.886;2023-07-13T05:52:12;18.02;;;3.63;;
60700;SDS011;46541;49.894;10.886;2023-07-13T05:54:38;8.60;;;2.67;;
60700;SDS011;46541;49.894;10.886;2023-07-13T05:57:05;6.88;;;2.22;;
60700;SDS011;46541;49.894;10.886;2023-07-13T05:59:32;4.57;;;1.60;;
60700;SDS011;46541;49.894;10.886;2023-07-13T06:01:59;3.53;;;1.30;;
60700;SDS011;46541;49.894;10.886;2023-07-13T06:04:25;3.30;;;1.25;;
60700;SDS011;46541;49.894;10.886;2023-07-13T06:06:52;5.93;;;2.00;;
60700;SDS011;46541;49.894;10.886;2023-07-13T06:09:19;8.88;;;1.77;;
60700;SDS011;46541;49.894;10.886;2023-07-13T06:11:46;6.47;;;1.67;;
60700;SDS011;46541;49.894;10.886;2023-07-13T06:14:13;6.25;;;1.77;;
60700;SDS011;46541;49.894;10.886;2023-07-13T06:16:39;4.95;;;2.08;;
60700;SDS011;46541;49.894;10.886;2023-07-13T06:19:07;10.30;;;3.40;;
60700;SDS011;46541;49.894;10.886;2023-07-13T06:21:33;7.88;;;2.90;;
60700;SDS011;46541;49.894;10.886;2023-07-13T06:24:00;6.13;;;2.45;;
60700;SDS011;46541;49.894;10.886;2023-07-13T06:26:27;9.88;;;3.15;;
60700;SDS011;46541;49.894;10.886;2023-07-13T06:28:54;13.07;;;3.20;;
60700;SDS011;46541;49.894;10.886;2023-07-13T06:31:21;10.05;;;3.25;;
60700;SDS011;46541;49.894;10.886;2023-07-13T06:33:48;9.38;;;3.00;;
60700;SDS011;46541;49.894;10.886;2023-07-13T06:36:15;11.23;;;3.22;;
60700;SDS011;46541;49.894;10.886;2023-07-13T06:38:42;7.10;;;2.63;;
60700;SDS011;46541;49.894;10.886;2023-07-13T06:41:08;5.05;;;1.90;;
60700;SDS011;46541;49.894;10.886;2023-07-13T06:43:36;6.75;;;1.60;;
60700;SDS011;46541;49.894;10.886;2023-07-13T06:46:03;2.92;;;1.33;;
60700;SDS011;46541;49.894;10.886;2023-07-13T06:48:30;6.97;;;1.35;;
60700;SDS011;46541;49.894;10.886;2023-07-13T06:50:57;8.68;;;2.03;;
60700;SDS011;46541;49.894;10.886;2023-07-13T06:53:24;5.88;;;1.65;;
60700;SDS011;46541;49.894;10.886;2023-07-13T06:55:50;8.25;;;2.55;;
60700;SDS011;46541;49.894;10.886;2023-07-13T06:58:18;4.75;;;1.70;;
60700;SDS011;46541;49.894;10.886;2023-07-13T07:00:46;5.10;;;1.73;;
60700;SDS011;46541;49.894;10.886;2023-07-13T07:03:16;3.85;;;1.77;;
60700;SDS011;46541;49.894;10.886;2023-07-13T07:05:43;2.75;;;1.08;;
60700;SDS011;46541;49.894;10.886;2023-07-13T07:08:10;5.80;;;1.42;;
60700;SDS011;46541;49.894;10.886;2023-07-13T07:10:37;5.72;;;1.73;;
60700;SDS011;46541;49.894;10.886;2023-07-13T07:13:03;7.82;;;1.30;;
60700;SDS011;46541;49.894;10.886;2023-07-13T07:15:30;3.42;;;1.48;;
60700;SDS011;46541;49.894;10.886;2023-07-13T07:17:57;6.25;;;1.65;;
60700;SDS011;46541;49.894;10.886;2023-07-13T07:20:24;6.07;;;1.70;;
60700;SDS011;46541;49.894;10.886;2023-07-13T07:22:51;5.30;;;1.30;;
60700;SDS011;46541;49.894;10.886;2023-07-13T07:25:18;5.55;;;1.75;;
60700;SDS011;46541;49.894;10.886;2023-07-13T07:27:45;5.80;;;1.45;;
60700;SDS011;46541;49.894;10.886;2023-07-13T07:30:15;4.88;;;1.48;;
60700;SDS011;46541;49.894;10.886;2023-07-13T07:32:44;4.97;;;1.35;;
60700;SDS011;46541;49.894;10.886;2023-07-13T07:35:14;4.93;;;1.30;;
60700;SDS011;46541;49.894;10.886;2023-07-13T07:37:41;9.85;;;1.63;;
60700;SDS011;46541;49.894;10.886;2023-07-13T07:40:10;6.50;;;1.45;;
60700;SDS011;46541;49.894;10.886;2023-07-13T07:42:40;4.65;;;1.52;;
60700;SDS011;46541;49.894;10.886;2023-07-13T07:45:07;7.72;;;1.25;;
60700;SDS011;46541;49.894;10.886;2023-07-13T07:47:34;3.25;;;1.25;;
60700;SDS011;46541;49.894;10.886;2023-07-13T07:50:01;6.97;;;1.17;;
60700;SDS011;46541;49.894;10.886;2023-07-13T07:52:28;5.28;;;1.50;;
60700;SDS011;46541;49.894;10.886;2023-07-13T07:54:54;3.67;;;1.17;;
60700;SDS011;46541;49.894;10.886;2023-07-13T07:57:41;6.38;;;1.50;;
60700;SDS011;46541;49.894;10.886;2023-07-13T08:00:11;3.10;;;1.60;;
60700;SDS011;46541;49.894;10.886;2023-07-13T08:02:41;7.10;;;2.00;;
60700;SDS011;46541;49.894;10.886;2023-07-13T08:05:29;5.38;;;1.13;;
60700;SDS011;46541;49.894;10.886;2023-07-13T08:07:58;4.15;;;1.08;;
60700;SDS011;46541;49.894;10.886;2023-07-13T08:10:25;3.17;;;0.77;;
60700;SDS011;46541;49.894;10.886;2023-07-13T08:12:52;4.35;;;1.35;;
60700;SDS011;46541;49.894;10.886;2023-07-13T08:15:22;8.88;;;1.15;;
60700;SDS011;46541;49.894;10.886;2023-07-13T08:17:49;4.45;;;1.15;;
60700;SDS011;46541;49.894;10.886;2023-07-13T08:20:16;4.97;;;1.00;;
60700;SDS011;46541;49.894;10.886;2023-07-13T08:22:43;1.80;;;0.80;;
60700;SDS011;46541;49.894;10.886;2023-07-13T08:25:10;2.25;;;0.70;;
60700;SDS011;46541;49.894;10.886;2023-07-13T08:27:37;7.47;;;0.93;;
60700;SDS011;46541;49.894;10.886;2023-07-13T08:30:04;1.30;;;0.63;;
60700;SDS011;46541;49.894;10.886;2023-07-13T08:32:31;2.15;;;0.90;;
60700;SDS011;46541;49.894;10.886;2023-07-13T08:34:58;2.20;;;1.05;;
60700;SDS011;46541;49.894;10.886;2023-07-13T08:37:25;5.45;;;0.90;;
60700;SDS011;46541;49.894;10.886;2023-07-13T08:39:52;1.52;;;0.80;;
60700;SDS011;46541;49.894;10.886;2023-07-13T08:47:57;3.28;;;0.57;;
60700;SDS011;46541;49.894;10.886;2023-07-13T08:50:38;3.67;;;0.68;;
60700;SDS011;46541;49.894;10.886;2023-07-13T08:53:29;1.90;;;0.70;;
60700;SDS011;46541;49.894;10.886;2023-07-13T08:56:05;3.58;;;0.90;;
60700;SDS011;46541;49.894;10.886;2023-07-13T08:58:39;2.65;;;0.65;;
60700;SDS011;46541;49.894;10.886;2023-07-13T09:04:29;3.63;;;1.05;;
60700;SDS011;46541;49.894;10.886;2023-07-13T09:07:04;3.50;;;1.00;;
60700;SDS011;46541;49.894;10.886;2023-07-13T09:09:51;2.28;;;0.80;;
60700;SDS011;46541;49.894;10.886;2023-07-13T09:15:24;3.58;;;0.90;;
60700;SDS011;46541;49.894;10.886;2023-07-13T09:17:58;1.60;;;0.70;;
60700;SDS011;46541;49.894;10.886;2023-07-13T09:20:39;5.07;;;1.00;;
60700;SDS011;46541;49.894;10.886;2023-07-13T09:23:15;2.17;;;1.00;;
60700;SDS011;46541;49.894;10.886;2023-07-13T09:25:45;2.80;;;0.73;;
60700;SDS011;46541;49.894;10.886;2023-07-13T09:28:21;1.85;;;0.88;;
60700;SDS011;46541;49.894;10.886;2023-07-13T09:31:03;4.30;;;0.70;;
60700;SDS011;46541;49.894;10.886;2023-07-13T09:33:33;2.85;;;1.13;;
60700;SDS011;46541;49.894;10.886;2023-07-13T09:36:01;1.52;;;0.60;;
60700;SDS011;46541;49.894;10.886;2023-07-13T09:38:43;0.82;;;0.70;;
60700;SDS011;46541;49.894;10.886;2023-07-13T09:41:18;1.95;;;0.73;;
60700;SDS011;46541;49.894;10.886;2023-07-13T09:46:39;4.22;;;1.17;;
60700;SDS011;46541;49.894;10.886;2023-07-13T09:49:10;1.17;;;0.70;;
60700;SDS011;46541;49.894;10.886;2023-07-13T09:51:40;4.80;;;0.90;;
60700;SDS011;46541;49.894;10.886;2023-07-13T09:54:20;1.20;;;0.57;;
60700;SDS011;46541;49.894;10.886;2023-07-13T09:56:47;4.72;;;1.13;;
60700;SDS011;46541;49.894;10.886;2023-07-13T09:59:20;4.53;;;0.90;;
60700;SDS011;46541;49.894;10.886;2023-07-13T10:01:50;3.28;;;0.75;;
60700;SDS011;46541;49.894;10.886;2023-07-13T10:04:17;2.42;;;1.15;;
60700;SDS011;46541;49.894;10.886;2023-07-13T10:06:46;5.50;;;1.10;;
60700;SDS011;46541;49.894;10.886;2023-07-13T10:09:16;3.58;;;0.93;;
60700;SDS011;46541;49.894;10.886;2023-07-13T10:11:45;0.82;;;0.70;;
60700;SDS011;46541;49.894;10.886;2023-07-13T10:14:16;3.50;;;0.90;;
60700;SDS011;46541;49.894;10.886;2023-07-13T10:16:46;3.47;;;0.95;;
60700;SDS011;46541;49.894;10.886;2023-07-13T10:19:23;5.32;;;0.80;;
60700;SDS011;46541;49.894;10.886;2023-07-13T10:21:57;4.18;;;0.80;;
60700;SDS011;46541;49.894;10.886;2023-07-13T10:24:26;4.70;;;0.80;;
60700;SDS011;46541;49.894;10.886;2023-07-13T10:27:03;3.58;;;1.30;;
60700;SDS011;46541;49.894;10.886;2023-07-13T10:29:50;2.92;;;0.82;;
60700;SDS011;46541;49.894;10.886;2023-07-13T10:32:21;2.63;;;0.70;;
60700;SDS011;46541;49.894;10.886;2023-07-13T10:34:51;4.15;;;1.05;;
60700;SDS011;46541;49.894;10.886;2023-07-13T10:37:19;2.17;;;0.80;;
60700;SDS011;46541;49.894;10.886;2023-07-13T10:39:55;2.88;;;1.10;;
60700;SDS011;46541;49.894;10.886;2023-07-13T10:42:37;4.78;;;1.08;;
60700;SDS011;46541;49.894;10.886;2023-07-13T10:45:14;4.47;;;1.10;;
60700;SDS011;46541;49.894;10.886;2023-07-13T10:47:46;2.67;;;0.80;;
60700;SDS011;46541;49.894;10.886;2023-07-13T10:50:22;1.77;;;0.73;;
60700;SDS011;46541;49.894;10.886;2023-07-13T10:52:55;7.47;;;1.38;;
60700;SDS011;46541;49.894;10.886;2023-07-13T10:55:31;3.05;;;0.70;;
60700;SDS011;46541;49.894;10.886;2023-07-13T10:58:40;2.67;;;1.02;;
60700;SDS011;46541;49.894;10.886;2023-07-13T11:01:17;3.78;;;1.10;;
60700;SDS011;46541;49.894;10.886;2023-07-13T11:06:39;2.05;;;0.98;;
60700;SDS011;46541;49.894;10.886;2023-07-13T11:12:07;5.03;;;0.88;;
60700;SDS011;46541;49.894;10.886;2023-07-13T11:41:06;4.63;;;1.20;;
60700;SDS011;46541;49.894;10.886;2023-07-13T11:43:33;4.13;;;1.60;;
60700;SDS011;46541;49.894;10.886;2023-07-13T11:46:13;1.70;;;1.00;;
60700;SDS011;46541;49.894;10.886;2023-07-13T11:48:48;2.83;;;1.05;;
60700;SDS011;46541;49.894;10.886;2023-07-13T11:51:19;2.70;;;0.90;;
60700;SDS011;46541;49.894;10.886;2023-07-13T11:54:03;4.28;;;0.90;;
60700;SDS011;46541;49.894;10.886;2023-07-13T11:56:33;5.43;;;1.40;;
60700;SDS011;46541;49.894;10.886;2023-07-13T11:59:06;4.10;;;0.88;;
60700;SDS011;46541;49.894;10.886;2023-07-13T12:01:34;3.40;;;1.35;;
60700;SDS011;46541;49.894;10.886;2023-07-13T12:04:08;3.42;;;0.82;;
60700;SDS011;46541;49.894;10.886;2023-07-13T12:06:47;2.42;;;0.93;;
60700;SDS011;46541;49.894;10.886;2023-07-13T12:09:26;3.53;;;1.40;;
60700;SDS011;46541;49.894;10.886;2023-07-13T12:11:54;4.28;;;1.15;;
60700;SDS011;46541;49.894;10.886;2023-07-13T12:14:22;2.92;;;1.20;;
60700;SDS011;46541;49.894;10.886;2023-07-13T12:16:51;2.85;;;1.20;;
60700;SDS011;46541;49.894;10.886;2023-07-13T12:19:20;5.00;;;1.88;;
60700;SDS011;46541;49.894;10.886;2023-07-13T12:21:49;7.30;;;1.52;;
60700;SDS011;46541;49.894;10.886;2023-07-13T12:24:19;3.55;;;0.95;;
60700;SDS011;46541;49.894;10.886;2023-07-13T12:26:52;2.08;;;1.13;;
60700;SDS011;46541;49.894;10.886;2023-07-13T12:29:21;3.05;;;1.35;;
60700;SDS011;46541;49.894;10.886;2023-07-13T12:31:48;4.63;;;1.40;;
60700;SDS011;46541;49.894;10.886;2023-07-13T12:34:17;3.17;;;0.95;;
60700;SDS011;46541;49.894;10.886;2023-07-13T12:37:09;2.28;;;1.20;;
60700;SDS011;46541;49.894;10.886;2023-07-13T12:39:38;3.92;;;1.05;;
60700;SDS011;46541;49.894;10.886;2023-07-13T12:42:25;2.97;;;1.15;;
60700;SDS011;46541;49.894;10.886;2023-07-13T12:47:47;3.08;;;1.23;;
60700;SDS011;46541;49.894;10.886;2023-07-13T12:50:17;3.00;;;1.00;;
60700;SDS011;46541;49.894;10.886;2023-07-13T12:52:50;3.65;;;1.25;;
60700;SDS011;46541;49.894;10.886;2023-07-13T12:55:20;6.25;;;1.45;;
60700;SDS011;46541;49.894;10.886;2023-07-13T12:57:57;3.90;;;1.30;;
60700;SDS011;46541;49.894;10.886;2023-07-13T13:00:29;6.28;;;1.75;;
60700;SDS011;46541;49.894;10.886;2023-07-13T13:03:05;3.65;;;1.05;;
60700;SDS011;46541;49.894;10.886;2023-07-13T13:06:02;6.32;;;1.13;;
60700;SDS011;46541;49.894;10.886;2023-07-13T13:08:32;2.10;;;1.15;;
60700;SDS011;46541;49.894;10.886;2023-07-13T13:11:01;3.00;;;1.48;;
60700;SDS011;46541;49.894;10.886;2023-07-13T13:13:28;2.25;;;1.25;;
60700;SDS011;46541;49.894;10.886;2023-07-13T13:15:55;2.65;;;1.38;;
60700;SDS011;46541;49.894;10.886;2023-07-13T13:18:23;2.38;;;1.23;;
60700;SDS011;46541;49.894;10.886;2023-07-13T13:20:50;2.88;;;1.13;;
60700;SDS011;46541;49.894;10.886;2023-07-13T13:23:19;5.53;;;1.13;;
60700;SDS011;46541;49.894;10.886;2023-07-13T13:25:47;4.68;;;1.13;;
60700;SDS011;46541;49.894;10.886;2023-07-13T13:28:18;3.88;;;1.08;;
60700;SDS011;46541;49.894;10.886;2023-07-13T13:30:49;3.80;;;1.70;;
60700;SDS011;46541;49.894;10.886;2023-07-13T13:33:18;4.68;;;1.20;;
60700;SDS011;46541;49.894;10.886;2023-07-13T13:35:46;4.15;;;1.10;;
60700;SDS011;46541;49.894;10.886;2023-07-13T13:38:14;1.88;;;0.90;;
60700;SDS011;46541;49.894;10.886;2023-07-13T13:40:44;3.22;;;1.48;;
60700;SDS011;46541;49.894;10.886;2023-07-13T13:43:22;2.53;;;1.00;;
60700;SDS011;46541;49.894;10.886;2023-07-13T13:45:57;2.70;;;1.30;;
60700;SDS011;46541;49.894;10.886;2023-07-13T13:48:29;4.43;;;1.58;;
60700;SDS011;46541;49.894;10.886;2023-07-13T13:50:59;3.58;;;1.15;;
60700;SDS011;46541;49.894;10.886;2023-07-13T13:53:27;4.68;;;1.40;;
60700;SDS011;46541;49.894;10.886;2023-07-13T13:55:54;4.47;;;1.20;;
60700;SDS011;46541;49.894;10.886;2023-07-13T13:58:21;7.85;;;1.58;;
60700;SDS011;46541;49.894;10.886;2023-07-13T14:00:47;2.67;;;1.25;;
60700;SDS011;46541;49.894;10.886;2023-07-13T14:03:19;5.18;;;1.50;;
60700;SDS011;46541;49.894;10.886;2023-07-13T14:05:47;4.10;;;1.85;;
60700;SDS011;46541;49.894;10.886;2023-07-13T14:08:16;3.35;;;1.58;;
60700;SDS011;46541;49.894;10.886;2023-07-13T14:10:46;6.53;;;1.90;;
60700;SDS011;46541;49.894;10.886;2023-07-13T14:13:22;3.45;;;1.55;;
60700;SDS011;46541;49.894;10.886;2023-07-13T14:15:55;5.35;;;1.92;;
60700;SDS011;46541;49.894;10.886;2023-07-13T14:18:22;6.13;;;1.33;;
60700;SDS011;46541;49.894;10.886;2023-07-13T14:20:50;3.13;;;1.70;;
60700;SDS011;46541;49.894;10.886;2023-07-13T14:23:19;2.22;;;1.15;;
60700;SDS011;46541;49.894;10.886;2023-07-13T14:25:46;4.88;;;1.30;;
60700;SDS011;46541;49.894;10.886;2023-07-13T14:30:48;3.05;;;1.00;;
60700;SDS011;46541;49.894;10.886;2023-07-13T14:33:16;2.35;;;1.20;;
60700;SDS011;46541;49.894;10.886;2023-07-13T14:35:43;4.70;;;1.42;;
60700;SDS011;46541;49.894;10.886;2023-07-13T14:38:15;2.42;;;1.30;;
60700;SDS011;46541;49.894;10.886;2023-07-13T14:40:45;12.45;;;2.30;;
60700;SDS011;46541;49.894;10.886;2023-07-13T14:43:13;2.97;;;1.17;;
60700;SDS011;46541;49.894;10.886;2023-07-13T14:45:42;5.05;;;1.20;;
60700;SDS011;46541;49.894;10.886;2023-07-13T14:48:17;3.70;;;1.27;;
60700;SDS011;46541;49.894;10.886;2023-07-13T14:50:49;2.45;;;1.42;;
60700;SDS011;46541;49.894;10.886;2023-07-13T14:53:22;3.40;;;1.77;;
60700;SDS011;46541;49.894;10.886;2023-07-13T14:55:51;2.22;;;1.13;;
60700;SDS011;46541;49.894;10.886;2023-07-13T14:58:18;4.25;;;1.42;;
60700;SDS011;46541;49.894;10.886;2023-07-13T15:00:45;6.43;;;1.50;;
60700;SDS011;46541;49.894;10.886;2023-07-13T15:03:17;4.13;;;1.00;;
60700;SDS011;46541;49.894;10.886;2023-07-13T15:05:49;5.72;;;1.90;;
60700;SDS011;46541;49.894;10.886;2023-07-13T15:08:16;4.53;;;1.30;;
60700;SDS011;46541;49.894;10.886;2023-07-13T15:10:43;3.90;;;1.25;;
60700;SDS011;46541;49.894;10.886;2023-07-13T15:13:28;5.60;;;1.33;;
60700;SDS011;46541;49.894;10.886;2023-07-13T15:15:55;6.55;;;2.10;;
60700;SDS011;46541;49.894;10.886;2023-07-13T15:18:22;9.25;;;1.40;;
60700;SDS011;46541;49.894;10.886;2023-07-13T15:20:51;6.57;;;1.58;;
60700;SDS011;46541;49.894;10.886;2023-07-13T15:23:22;5.18;;;1.00;;
60700;SDS011;46541;49.894;10.886;2023-07-13T15:25:49;2.10;;;1.00;;
60700;SDS011;46541;49.894;10.886;2023-07-13T15:28:16;4.72;;;1.38;;
60700;SDS011;46541;49.894;10.886;2023-07-13T15:30:47;2.28;;;0.90;;
60700;SDS011;46541;49.894;10.886;2023-07-13T15:35:50;2.53;;;1.25;;
60700;SDS011;46541;49.894;10.886;2023-07-13T15:38:23;4.90;;;1.77;;
60700;SDS011;46541;49.894;10.886;2023-07-13T15:40:52;2.90;;;1.58;;
60700;SDS011;46541;49.894;10.886;2023-07-13T15:43:20;1.48;;;1.20;;